<?xml version="1.0" encoding="UTF-8" standalone="no" ?>
<gpx xmlns="http://www.topografix.com/GPX/1/1" xmlns:xsi="http://www.w3.org/2001/XMLSchema-instance" xsi:schemaLocation="http://www.topografix.com/GPX/1/1 http://www.topografix.com/GPX/1/1/gpx.xsd" version="1.1" creator="VisuGPX - https://www.visugpx.com">
  <metadata>
    <name>Dentelles3</name>
    <desc><![CDATA[
]]></desc>
  </metadata>
  <wpt lat="44.15594" lon="5.00984">
    <ele>414.5</ele>
    <name><![CDATA[avant rocher du midi]]></name>
  </wpt>
  <wpt lat="44.15276" lon="5.02017">
    <ele>463</ele>
    <name><![CDATA[col d'alsau]]></name>
  </wpt>
  <wpt lat="44.15712" lon="5.04579">
    <ele>262.8</ele>
    <name><![CDATA[st christophe]]></name>
  </wpt>
  <wpt lat="44.1591" lon="5.02437">
    <ele>406.2</ele>
    <name><![CDATA[col du cayron]]></name>
  </wpt>
  <wpt lat="44.16634" lon="5.01472">
    <ele>274.3</ele>
    <name><![CDATA[la fouille]]></name>
  </wpt>
  <wpt lat="44.15253" lon="5.03678">
    <ele>355.3</ele>
    <name><![CDATA[le clapis 346]]></name>
  </wpt>
  <wpt lat="44.16141" lon="5.03317">
    <ele>325.8</ele>
    <name><![CDATA[fenouillet]]></name>
  </wpt>
  <trk>
    <name><![CDATA[--Gigondas-- OR-5791920:dentelles de montmirail g3 dernier projet]]></name>
    <trkseg>
      <trkpt lat="44.16331" lon="5.00268">
        <ele>238</ele>
        <time>2016-03-22T08:21:34Z</time>
      </trkpt>
      <trkpt lat="44.16331" lon="5.00268">
        <ele>238</ele>
        <time>2016-03-22T08:21:34Z</time>
      </trkpt>
      <trkpt lat="44.16304" lon="5.00328">
        <ele>246</ele>
        <time>2016-03-22T08:23:34Z</time>
      </trkpt>
      <trkpt lat="44.16295" lon="5.00362">
        <ele>248</ele>
        <time>2016-03-22T08:25:34Z</time>
      </trkpt>
      <trkpt lat="44.16297" lon="5.00391">
        <ele>248</ele>
        <time>2016-03-22T08:27:34Z</time>
      </trkpt>
      <trkpt lat="44.16289" lon="5.00419">
        <ele>250</ele>
        <time>2016-03-22T08:29:34Z</time>
      </trkpt>
      <trkpt lat="44.16251" lon="5.00462">
        <ele>256</ele>
        <time>2016-03-22T08:31:34Z</time>
      </trkpt>
      <trkpt lat="44.16221" lon="5.0048">
        <ele>258</ele>
        <time>2016-03-22T08:33:34Z</time>
      </trkpt>
      <trkpt lat="44.16212" lon="5.00479">
        <ele>259</ele>
        <time>2016-03-22T08:35:34Z</time>
      </trkpt>
      <trkpt lat="44.16196" lon="5.00472">
        <ele>260</ele>
        <time>2016-03-22T08:37:34Z</time>
      </trkpt>
      <trkpt lat="44.16161" lon="5.00433">
        <ele>267</ele>
        <time>2016-03-22T08:39:34Z</time>
      </trkpt>
      <trkpt lat="44.16099" lon="5.00394">
        <ele>274</ele>
        <time>2016-03-22T08:41:34Z</time>
      </trkpt>
      <trkpt lat="44.16056" lon="5.00326">
        <ele>286</ele>
        <time>2016-03-22T08:43:34Z</time>
      </trkpt>
      <trkpt lat="44.1603" lon="5.00311">
        <ele>288</ele>
        <time>2016-03-22T08:45:34Z</time>
      </trkpt>
      <trkpt lat="44.1599" lon="5.0036">
        <ele>290</ele>
        <time>2016-03-22T08:47:34Z</time>
      </trkpt>
      <trkpt lat="44.15967" lon="5.00407">
        <ele>294</ele>
        <time>2016-03-22T08:49:34Z</time>
      </trkpt>
      <trkpt lat="44.15937" lon="5.00458">
        <ele>303</ele>
        <time>2016-03-22T08:51:34Z</time>
      </trkpt>
      <trkpt lat="44.15942" lon="5.00618">
        <ele>318</ele>
        <time>2016-03-22T08:53:34Z</time>
      </trkpt>
      <trkpt lat="44.15946" lon="5.00652">
        <ele>321</ele>
        <time>2016-03-22T08:55:34Z</time>
      </trkpt>
      <trkpt lat="44.15934" lon="5.00699">
        <ele>329</ele>
        <time>2016-03-22T08:57:34Z</time>
      </trkpt>
      <trkpt lat="44.15932" lon="5.00783">
        <ele>341</ele>
        <time>2016-03-22T08:59:34Z</time>
      </trkpt>
      <trkpt lat="44.15921" lon="5.00839">
        <ele>354</ele>
        <time>2016-03-22T09:01:34Z</time>
      </trkpt>
      <trkpt lat="44.15943" lon="5.00912">
        <ele>362</ele>
        <time>2016-03-22T09:03:34Z</time>
      </trkpt>
      <trkpt lat="44.15945" lon="5.00936">
        <ele>367</ele>
        <time>2016-03-22T09:05:34Z</time>
      </trkpt>
      <trkpt lat="44.15915" lon="5.00878">
        <ele>365</ele>
        <time>2016-03-22T09:07:34Z</time>
      </trkpt>
      <trkpt lat="44.1589" lon="5.00863">
        <ele>365</ele>
        <time>2016-03-22T09:09:34Z</time>
      </trkpt>
      <trkpt lat="44.15872" lon="5.00877">
        <ele>372</ele>
        <time>2016-03-22T09:11:34Z</time>
      </trkpt>
      <trkpt lat="44.15799" lon="5.00869">
        <ele>376</ele>
        <time>2016-03-22T09:13:34Z</time>
      </trkpt>
      <trkpt lat="44.1575" lon="5.00935">
        <ele>392</ele>
        <time>2016-03-22T09:15:34Z</time>
      </trkpt>
      <trkpt lat="44.15723" lon="5.00955">
        <ele>400</ele>
        <time>2016-03-22T09:17:34Z</time>
      </trkpt>
      <trkpt lat="44.15696" lon="5.01008">
        <ele>412</ele>
        <time>2016-03-22T09:19:34Z</time>
      </trkpt>
      <trkpt lat="44.15673" lon="5.01027">
        <ele>415</ele>
        <time>2016-03-22T09:21:34Z</time>
      </trkpt>
      <trkpt lat="44.15637" lon="5.01006">
        <ele>412</ele>
        <time>2016-03-22T09:23:34Z</time>
      </trkpt>
      <trkpt lat="44.15594" lon="5.0101">
        <ele>418</ele>
        <time>2016-03-22T09:25:34Z</time>
      </trkpt>
      <trkpt lat="44.15586" lon="5.01021">
        <ele>421</ele>
        <time>2016-03-22T09:27:34Z</time>
      </trkpt>
      <trkpt lat="44.15582" lon="5.01023">
        <ele>421</ele>
        <time>2016-03-22T09:29:34Z</time>
      </trkpt>
      <trkpt lat="44.15518" lon="5.01038">
        <ele>408</ele>
        <time>2016-03-22T09:31:34Z</time>
      </trkpt>
      <trkpt lat="44.15467" lon="5.01068">
        <ele>404</ele>
        <time>2016-03-22T09:33:34Z</time>
      </trkpt>
      <trkpt lat="44.15442" lon="5.01104">
        <ele>411</ele>
        <time>2016-03-22T09:35:34Z</time>
      </trkpt>
      <trkpt lat="44.15391" lon="5.01132">
        <ele>416</ele>
        <time>2016-03-22T09:37:34Z</time>
      </trkpt>
      <trkpt lat="44.15345" lon="5.01135">
        <ele>415</ele>
        <time>2016-03-22T09:39:34Z</time>
      </trkpt>
      <trkpt lat="44.15308" lon="5.0114">
        <ele>416</ele>
        <time>2016-03-22T09:41:34Z</time>
      </trkpt>
      <trkpt lat="44.15274" lon="5.01165">
        <ele>421</ele>
        <time>2016-03-22T09:43:34Z</time>
      </trkpt>
      <trkpt lat="44.1525" lon="5.01192">
        <ele>426</ele>
        <time>2016-03-22T09:45:34Z</time>
      </trkpt>
      <trkpt lat="44.15227" lon="5.01232">
        <ele>428</ele>
        <time>2016-03-22T09:47:34Z</time>
      </trkpt>
      <trkpt lat="44.15212" lon="5.01272">
        <ele>429</ele>
        <time>2016-03-22T09:49:34Z</time>
      </trkpt>
      <trkpt lat="44.15208" lon="5.01342">
        <ele>437</ele>
        <time>2016-03-22T09:51:34Z</time>
      </trkpt>
      <trkpt lat="44.15208" lon="5.01371">
        <ele>437</ele>
        <time>2016-03-22T09:53:34Z</time>
      </trkpt>
      <trkpt lat="44.15219" lon="5.01453">
        <ele>442</ele>
        <time>2016-03-22T09:55:34Z</time>
      </trkpt>
      <trkpt lat="44.15246" lon="5.01565">
        <ele>443</ele>
        <time>2016-03-22T09:57:34Z</time>
      </trkpt>
      <trkpt lat="44.15262" lon="5.01641">
        <ele>445</ele>
        <time>2016-03-22T09:59:34Z</time>
      </trkpt>
      <trkpt lat="44.15285" lon="5.01735">
        <ele>451</ele>
        <time>2016-03-22T10:01:34Z</time>
      </trkpt>
      <trkpt lat="44.1529" lon="5.01779">
        <ele>452</ele>
        <time>2016-03-22T10:03:34Z</time>
      </trkpt>
      <trkpt lat="44.15297" lon="5.01821">
        <ele>454</ele>
        <time>2016-03-22T10:05:34Z</time>
      </trkpt>
      <trkpt lat="44.15307" lon="5.01856">
        <ele>460</ele>
        <time>2016-03-22T10:07:34Z</time>
      </trkpt>
      <trkpt lat="44.15308" lon="5.01871">
        <ele>460</ele>
        <time>2016-03-22T10:09:34Z</time>
      </trkpt>
      <trkpt lat="44.15304" lon="5.01915">
        <ele>460</ele>
        <time>2016-03-22T10:11:34Z</time>
      </trkpt>
      <trkpt lat="44.15298" lon="5.01945">
        <ele>460</ele>
        <time>2016-03-22T10:13:34Z</time>
      </trkpt>
      <trkpt lat="44.15277" lon="5.01982">
        <ele>457</ele>
        <time>2016-03-22T10:15:34Z</time>
      </trkpt>
      <trkpt lat="44.15258" lon="5.01996">
        <ele>454</ele>
        <time>2016-03-22T10:17:34Z</time>
      </trkpt>
      <trkpt lat="44.15253" lon="5.01996">
        <ele>452</ele>
        <time>2016-03-22T10:19:34Z</time>
      </trkpt>
      <trkpt lat="44.15228" lon="5.02002">
        <ele>456</ele>
        <time>2016-03-22T10:21:34Z</time>
      </trkpt>
      <trkpt lat="44.15211" lon="5.02002">
        <ele>459</ele>
        <time>2016-03-22T10:23:34Z</time>
      </trkpt>
      <trkpt lat="44.15208" lon="5.02006">
        <ele>460</ele>
        <time>2016-03-22T10:25:34Z</time>
      </trkpt>
      <trkpt lat="44.1521" lon="5.02026">
        <ele>461</ele>
        <time>2016-03-22T10:27:34Z</time>
      </trkpt>
      <trkpt lat="44.1521" lon="5.02042">
        <ele>463</ele>
        <time>2016-03-22T10:29:34Z</time>
      </trkpt>
      <trkpt lat="44.15208" lon="5.0213">
        <ele>465</ele>
        <time>2016-03-22T10:31:34Z</time>
      </trkpt>
      <trkpt lat="44.15205" lon="5.02133">
        <ele>466</ele>
        <time>2016-03-22T10:33:34Z</time>
      </trkpt>
      <trkpt lat="44.15143" lon="5.02266">
        <ele>466</ele>
        <time>2016-03-22T10:35:34Z</time>
      </trkpt>
      <trkpt lat="44.15115" lon="5.02353">
        <ele>466</ele>
        <time>2016-03-22T10:37:34Z</time>
      </trkpt>
      <trkpt lat="44.15102" lon="5.02411">
        <ele>463</ele>
        <time>2016-03-22T10:39:34Z</time>
      </trkpt>
      <trkpt lat="44.1509" lon="5.02452">
        <ele>461</ele>
        <time>2016-03-22T10:41:34Z</time>
      </trkpt>
      <trkpt lat="44.15086" lon="5.02464">
        <ele>460</ele>
        <time>2016-03-22T10:43:34Z</time>
      </trkpt>
      <trkpt lat="44.15086" lon="5.02487">
        <ele>456</ele>
        <time>2016-03-22T10:45:34Z</time>
      </trkpt>
      <trkpt lat="44.15079" lon="5.02515">
        <ele>455</ele>
        <time>2016-03-22T10:47:34Z</time>
      </trkpt>
      <trkpt lat="44.15081" lon="5.02527">
        <ele>453</ele>
        <time>2016-03-22T10:49:34Z</time>
      </trkpt>
      <trkpt lat="44.15079" lon="5.02537">
        <ele>452</ele>
        <time>2016-03-22T10:51:34Z</time>
      </trkpt>
      <trkpt lat="44.15069" lon="5.02545">
        <ele>457</ele>
        <time>2016-03-22T10:53:34Z</time>
      </trkpt>
      <trkpt lat="44.15066" lon="5.0257">
        <ele>456</ele>
        <time>2016-03-22T10:55:34Z</time>
      </trkpt>
      <trkpt lat="44.15059" lon="5.02589">
        <ele>457</ele>
        <time>2016-03-22T10:57:34Z</time>
      </trkpt>
      <trkpt lat="44.15051" lon="5.02634">
        <ele>455</ele>
        <time>2016-03-22T10:59:34Z</time>
      </trkpt>
      <trkpt lat="44.15046" lon="5.02644">
        <ele>455</ele>
        <time>2016-03-22T11:01:34Z</time>
      </trkpt>
      <trkpt lat="44.15039" lon="5.02681">
        <ele>453</ele>
        <time>2016-03-22T11:03:34Z</time>
      </trkpt>
      <trkpt lat="44.15029" lon="5.02718">
        <ele>452</ele>
        <time>2016-03-22T11:05:34Z</time>
      </trkpt>
      <trkpt lat="44.1503" lon="5.02762">
        <ele>445</ele>
        <time>2016-03-22T11:07:34Z</time>
      </trkpt>
      <trkpt lat="44.15036" lon="5.02785">
        <ele>440</ele>
        <time>2016-03-22T11:09:34Z</time>
      </trkpt>
      <trkpt lat="44.15023" lon="5.02871">
        <ele>435</ele>
        <time>2016-03-22T11:11:34Z</time>
      </trkpt>
      <trkpt lat="44.15016" lon="5.02913">
        <ele>432</ele>
        <time>2016-03-22T11:13:34Z</time>
      </trkpt>
      <trkpt lat="44.15013" lon="5.02947">
        <ele>430</ele>
        <time>2016-03-22T11:15:34Z</time>
      </trkpt>
      <trkpt lat="44.15014" lon="5.02957">
        <ele>428</ele>
        <time>2016-03-22T11:17:34Z</time>
      </trkpt>
      <trkpt lat="44.15018" lon="5.02966">
        <ele>426</ele>
        <time>2016-03-22T11:19:34Z</time>
      </trkpt>
      <trkpt lat="44.15015" lon="5.02981">
        <ele>426</ele>
        <time>2016-03-22T11:21:34Z</time>
      </trkpt>
      <trkpt lat="44.15024" lon="5.03015">
        <ele>420</ele>
        <time>2016-03-22T11:23:34Z</time>
      </trkpt>
      <trkpt lat="44.1503" lon="5.03022">
        <ele>418</ele>
        <time>2016-03-22T11:25:34Z</time>
      </trkpt>
      <trkpt lat="44.15034" lon="5.03035">
        <ele>416</ele>
        <time>2016-03-22T11:27:34Z</time>
      </trkpt>
      <trkpt lat="44.15038" lon="5.03038">
        <ele>415</ele>
        <time>2016-03-22T11:29:34Z</time>
      </trkpt>
      <trkpt lat="44.15039" lon="5.03044">
        <ele>415</ele>
        <time>2016-03-22T11:31:34Z</time>
      </trkpt>
      <trkpt lat="44.15056" lon="5.03053">
        <ele>411</ele>
        <time>2016-03-22T11:33:34Z</time>
      </trkpt>
      <trkpt lat="44.15082" lon="5.03071">
        <ele>408</ele>
        <time>2016-03-22T11:35:34Z</time>
      </trkpt>
      <trkpt lat="44.15088" lon="5.03081">
        <ele>407</ele>
        <time>2016-03-22T11:37:34Z</time>
      </trkpt>
      <trkpt lat="44.15088" lon="5.03117">
        <ele>408</ele>
        <time>2016-03-22T11:39:34Z</time>
      </trkpt>
      <trkpt lat="44.15106" lon="5.03175">
        <ele>401</ele>
        <time>2016-03-22T11:41:34Z</time>
      </trkpt>
      <trkpt lat="44.15114" lon="5.03218">
        <ele>395</ele>
        <time>2016-03-22T11:43:34Z</time>
      </trkpt>
      <trkpt lat="44.15116" lon="5.0323">
        <ele>394</ele>
        <time>2016-03-22T11:45:34Z</time>
      </trkpt>
      <trkpt lat="44.15136" lon="5.03305">
        <ele>384</ele>
        <time>2016-03-22T11:47:34Z</time>
      </trkpt>
      <trkpt lat="44.15158" lon="5.03373">
        <ele>373</ele>
        <time>2016-03-22T11:49:34Z</time>
      </trkpt>
      <trkpt lat="44.15169" lon="5.03464">
        <ele>373</ele>
        <time>2016-03-22T11:51:34Z</time>
      </trkpt>
      <trkpt lat="44.15186" lon="5.03479">
        <ele>368</ele>
        <time>2016-03-22T11:53:34Z</time>
      </trkpt>
      <trkpt lat="44.15237" lon="5.03595">
        <ele>356</ele>
        <time>2016-03-22T11:55:34Z</time>
      </trkpt>
      <trkpt lat="44.15251" lon="5.03619">
        <ele>353</ele>
        <time>2016-03-22T11:57:34Z</time>
      </trkpt>
      <trkpt lat="44.15254" lon="5.03634">
        <ele>353</ele>
        <time>2016-03-22T11:59:34Z</time>
      </trkpt>
      <trkpt lat="44.15261" lon="5.03651">
        <ele>353</ele>
        <time>2016-03-22T12:01:34Z</time>
      </trkpt>
      <trkpt lat="44.15274" lon="5.03661">
        <ele>350</ele>
        <time>2016-03-22T12:03:34Z</time>
      </trkpt>
      <trkpt lat="44.15288" lon="5.03663">
        <ele>345</ele>
        <time>2016-03-22T12:05:34Z</time>
      </trkpt>
      <trkpt lat="44.15301" lon="5.03654">
        <ele>341</ele>
        <time>2016-03-22T12:07:34Z</time>
      </trkpt>
      <trkpt lat="44.15315" lon="5.03654">
        <ele>337</ele>
        <time>2016-03-22T12:09:34Z</time>
      </trkpt>
      <trkpt lat="44.15323" lon="5.03667">
        <ele>334</ele>
        <time>2016-03-22T12:11:34Z</time>
      </trkpt>
      <trkpt lat="44.1538" lon="5.03681">
        <ele>332</ele>
        <time>2016-03-22T12:13:34Z</time>
      </trkpt>
      <trkpt lat="44.15422" lon="5.03703">
        <ele>330</ele>
        <time>2016-03-22T12:15:34Z</time>
      </trkpt>
      <trkpt lat="44.15469" lon="5.03738">
        <ele>329</ele>
        <time>2016-03-22T12:17:34Z</time>
      </trkpt>
      <trkpt lat="44.15474" lon="5.03769">
        <ele>323</ele>
        <time>2016-03-22T12:19:34Z</time>
      </trkpt>
      <trkpt lat="44.1549" lon="5.03787">
        <ele>318</ele>
        <time>2016-03-22T12:21:34Z</time>
      </trkpt>
      <trkpt lat="44.15525" lon="5.03857">
        <ele>311</ele>
        <time>2016-03-22T12:23:34Z</time>
      </trkpt>
      <trkpt lat="44.15551" lon="5.03978">
        <ele>307</ele>
        <time>2016-03-22T12:25:34Z</time>
      </trkpt>
      <trkpt lat="44.15622" lon="5.0417">
        <ele>289</ele>
        <time>2016-03-22T12:27:34Z</time>
      </trkpt>
      <trkpt lat="44.15631" lon="5.04244">
        <ele>286</ele>
        <time>2016-03-22T12:29:34Z</time>
      </trkpt>
      <trkpt lat="44.15626" lon="5.04276">
        <ele>284</ele>
        <time>2016-03-22T12:31:34Z</time>
      </trkpt>
      <trkpt lat="44.15649" lon="5.04371">
        <ele>274</ele>
        <time>2016-03-22T12:33:34Z</time>
      </trkpt>
      <trkpt lat="44.15665" lon="5.04486">
        <ele>261</ele>
        <time>2016-03-22T12:35:34Z</time>
      </trkpt>
      <trkpt lat="44.15676" lon="5.04517">
        <ele>260</ele>
        <time>2016-03-22T12:37:34Z</time>
      </trkpt>
      <trkpt lat="44.15699" lon="5.04519">
        <ele>261</ele>
        <time>2016-03-22T12:39:34Z</time>
      </trkpt>
      <trkpt lat="44.15712" lon="5.04535">
        <ele>262</ele>
        <time>2016-03-22T12:41:34Z</time>
      </trkpt>
      <trkpt lat="44.15727" lon="5.04566">
        <ele>264</ele>
        <time>2016-03-22T12:43:34Z</time>
      </trkpt>
      <trkpt lat="44.15822" lon="5.04469">
        <ele>265</ele>
        <time>2016-03-22T12:45:34Z</time>
      </trkpt>
      <trkpt lat="44.15878" lon="5.04406">
        <ele>266</ele>
        <time>2016-03-22T12:47:34Z</time>
      </trkpt>
      <trkpt lat="44.15902" lon="5.044">
        <ele>264</ele>
        <time>2016-03-22T12:49:34Z</time>
      </trkpt>
      <trkpt lat="44.15924" lon="5.04419">
        <ele>264</ele>
        <time>2016-03-22T12:51:34Z</time>
      </trkpt>
      <trkpt lat="44.15949" lon="5.04451">
        <ele>266</ele>
        <time>2016-03-22T12:53:34Z</time>
      </trkpt>
      <trkpt lat="44.15968" lon="5.04442">
        <ele>266</ele>
        <time>2016-03-22T12:55:34Z</time>
      </trkpt>
      <trkpt lat="44.15982" lon="5.04422">
        <ele>267</ele>
        <time>2016-03-22T12:57:34Z</time>
      </trkpt>
      <trkpt lat="44.16002" lon="5.0437">
        <ele>268</ele>
        <time>2016-03-22T12:59:34Z</time>
      </trkpt>
      <trkpt lat="44.16031" lon="5.04337">
        <ele>270</ele>
        <time>2016-03-22T13:01:34Z</time>
      </trkpt>
      <trkpt lat="44.16098" lon="5.04266">
        <ele>280</ele>
        <time>2016-03-22T13:03:34Z</time>
      </trkpt>
      <trkpt lat="44.16113" lon="5.04233">
        <ele>284</ele>
        <time>2016-03-22T13:05:34Z</time>
      </trkpt>
      <trkpt lat="44.16119" lon="5.04192">
        <ele>286</ele>
        <time>2016-03-22T13:07:34Z</time>
      </trkpt>
      <trkpt lat="44.16135" lon="5.04118">
        <ele>288</ele>
        <time>2016-03-22T13:09:34Z</time>
      </trkpt>
      <trkpt lat="44.16147" lon="5.04098">
        <ele>286</ele>
        <time>2016-03-22T13:11:34Z</time>
      </trkpt>
      <trkpt lat="44.16172" lon="5.04088">
        <ele>284</ele>
        <time>2016-03-22T13:13:34Z</time>
      </trkpt>
      <trkpt lat="44.16188" lon="5.04074">
        <ele>284</ele>
        <time>2016-03-22T13:15:34Z</time>
      </trkpt>
      <trkpt lat="44.16187" lon="5.04063">
        <ele>284</ele>
        <time>2016-03-22T13:17:34Z</time>
      </trkpt>
      <trkpt lat="44.16194" lon="5.04034">
        <ele>285</ele>
        <time>2016-03-22T13:19:34Z</time>
      </trkpt>
      <trkpt lat="44.16199" lon="5.03976">
        <ele>289</ele>
        <time>2016-03-22T13:21:34Z</time>
      </trkpt>
      <trkpt lat="44.16199" lon="5.03921">
        <ele>296</ele>
        <time>2016-03-22T13:23:34Z</time>
      </trkpt>
      <trkpt lat="44.16202" lon="5.0386">
        <ele>298</ele>
        <time>2016-03-22T13:25:34Z</time>
      </trkpt>
      <trkpt lat="44.16201" lon="5.03805">
        <ele>300</ele>
        <time>2016-03-22T13:27:34Z</time>
      </trkpt>
      <trkpt lat="44.16214" lon="5.03755">
        <ele>299</ele>
        <time>2016-03-22T13:29:34Z</time>
      </trkpt>
      <trkpt lat="44.16219" lon="5.03723">
        <ele>300</ele>
        <time>2016-03-22T13:31:34Z</time>
      </trkpt>
      <trkpt lat="44.16217" lon="5.03672">
        <ele>303</ele>
        <time>2016-03-22T13:33:34Z</time>
      </trkpt>
      <trkpt lat="44.16203" lon="5.03614">
        <ele>307</ele>
        <time>2016-03-22T13:35:34Z</time>
      </trkpt>
      <trkpt lat="44.16195" lon="5.03601">
        <ele>308</ele>
        <time>2016-03-22T13:37:34Z</time>
      </trkpt>
      <trkpt lat="44.16193" lon="5.03579">
        <ele>309</ele>
        <time>2016-03-22T13:39:34Z</time>
      </trkpt>
      <trkpt lat="44.16192" lon="5.03542">
        <ele>310</ele>
        <time>2016-03-22T13:41:34Z</time>
      </trkpt>
      <trkpt lat="44.16182" lon="5.03512">
        <ele>310</ele>
        <time>2016-03-22T13:43:34Z</time>
      </trkpt>
      <trkpt lat="44.16175" lon="5.03471">
        <ele>312</ele>
        <time>2016-03-22T13:45:34Z</time>
      </trkpt>
      <trkpt lat="44.16164" lon="5.03446">
        <ele>313</ele>
        <time>2016-03-22T13:47:34Z</time>
      </trkpt>
      <trkpt lat="44.16161" lon="5.03432">
        <ele>314</ele>
        <time>2016-03-22T13:49:34Z</time>
      </trkpt>
      <trkpt lat="44.16161" lon="5.0338">
        <ele>317</ele>
        <time>2016-03-22T13:51:34Z</time>
      </trkpt>
      <trkpt lat="44.16166" lon="5.03351">
        <ele>319</ele>
        <time>2016-03-22T13:53:34Z</time>
      </trkpt>
      <trkpt lat="44.16164" lon="5.03333">
        <ele>320</ele>
        <time>2016-03-22T13:55:34Z</time>
      </trkpt>
      <trkpt lat="44.1615" lon="5.03294">
        <ele>325</ele>
        <time>2016-03-22T13:57:34Z</time>
      </trkpt>
      <trkpt lat="44.16129" lon="5.03205">
        <ele>333</ele>
        <time>2016-03-22T13:59:34Z</time>
      </trkpt>
      <trkpt lat="44.16115" lon="5.03136">
        <ele>336</ele>
        <time>2016-03-22T14:01:34Z</time>
      </trkpt>
      <trkpt lat="44.16106" lon="5.03115">
        <ele>337</ele>
        <time>2016-03-22T14:03:34Z</time>
      </trkpt>
      <trkpt lat="44.16093" lon="5.03074">
        <ele>338</ele>
        <time>2016-03-22T14:05:34Z</time>
      </trkpt>
      <trkpt lat="44.16084" lon="5.03031">
        <ele>340</ele>
        <time>2016-03-22T14:07:34Z</time>
      </trkpt>
      <trkpt lat="44.16087" lon="5.02968">
        <ele>347</ele>
        <time>2016-03-22T14:09:34Z</time>
      </trkpt>
      <trkpt lat="44.16083" lon="5.02955">
        <ele>348</ele>
        <time>2016-03-22T14:11:34Z</time>
      </trkpt>
      <trkpt lat="44.16082" lon="5.02922">
        <ele>352</ele>
        <time>2016-03-22T14:13:34Z</time>
      </trkpt>
      <trkpt lat="44.1607" lon="5.02892">
        <ele>356</ele>
        <time>2016-03-22T14:15:34Z</time>
      </trkpt>
      <trkpt lat="44.16062" lon="5.02857">
        <ele>360</ele>
        <time>2016-03-22T14:17:34Z</time>
      </trkpt>
      <trkpt lat="44.16052" lon="5.02806">
        <ele>367</ele>
        <time>2016-03-22T14:19:34Z</time>
      </trkpt>
      <trkpt lat="44.16042" lon="5.02775">
        <ele>371</ele>
        <time>2016-03-22T14:21:34Z</time>
      </trkpt>
      <trkpt lat="44.16032" lon="5.02755">
        <ele>374</ele>
        <time>2016-03-22T14:23:34Z</time>
      </trkpt>
      <trkpt lat="44.16014" lon="5.02716">
        <ele>379</ele>
        <time>2016-03-22T14:25:34Z</time>
      </trkpt>
      <trkpt lat="44.15947" lon="5.02595">
        <ele>398</ele>
        <time>2016-03-22T14:27:34Z</time>
      </trkpt>
      <trkpt lat="44.15932" lon="5.02556">
        <ele>401</ele>
        <time>2016-03-22T14:29:34Z</time>
      </trkpt>
      <trkpt lat="44.159" lon="5.02481">
        <ele>404</ele>
        <time>2016-03-22T14:31:34Z</time>
      </trkpt>
      <trkpt lat="44.15894" lon="5.02434">
        <ele>406</ele>
        <time>2016-03-22T14:33:34Z</time>
      </trkpt>
      <trkpt lat="44.1589" lon="5.02392">
        <ele>405</ele>
        <time>2016-03-22T14:35:34Z</time>
      </trkpt>
      <trkpt lat="44.15891" lon="5.02341">
        <ele>401</ele>
        <time>2016-03-22T14:37:34Z</time>
      </trkpt>
      <trkpt lat="44.15896" lon="5.02318">
        <ele>398</ele>
        <time>2016-03-22T14:39:34Z</time>
      </trkpt>
      <trkpt lat="44.15907" lon="5.02291">
        <ele>393</ele>
        <time>2016-03-22T14:41:34Z</time>
      </trkpt>
      <trkpt lat="44.1593" lon="5.02215">
        <ele>386</ele>
        <time>2016-03-22T14:43:34Z</time>
      </trkpt>
      <trkpt lat="44.15949" lon="5.02125">
        <ele>378</ele>
        <time>2016-03-22T14:45:34Z</time>
      </trkpt>
      <trkpt lat="44.15967" lon="5.02076">
        <ele>373</ele>
        <time>2016-03-22T14:47:34Z</time>
      </trkpt>
      <trkpt lat="44.1599" lon="5.01967">
        <ele>353</ele>
        <time>2016-03-22T14:49:34Z</time>
      </trkpt>
      <trkpt lat="44.1602" lon="5.01907">
        <ele>348</ele>
        <time>2016-03-22T14:51:34Z</time>
      </trkpt>
      <trkpt lat="44.16028" lon="5.01867">
        <ele>343</ele>
        <time>2016-03-22T14:53:34Z</time>
      </trkpt>
      <trkpt lat="44.16057" lon="5.01825">
        <ele>338</ele>
        <time>2016-03-22T14:55:34Z</time>
      </trkpt>
      <trkpt lat="44.16082" lon="5.01797">
        <ele>332</ele>
        <time>2016-03-22T14:57:34Z</time>
      </trkpt>
      <trkpt lat="44.1613" lon="5.0176">
        <ele>320</ele>
        <time>2016-03-22T14:59:34Z</time>
      </trkpt>
      <trkpt lat="44.16159" lon="5.01727">
        <ele>313</ele>
        <time>2016-03-22T15:01:34Z</time>
      </trkpt>
      <trkpt lat="44.16256" lon="5.01694">
        <ele>307</ele>
        <time>2016-03-22T15:03:34Z</time>
      </trkpt>
      <trkpt lat="44.16309" lon="5.01686">
        <ele>303</ele>
        <time>2016-03-22T15:05:34Z</time>
      </trkpt>
      <trkpt lat="44.16353" lon="5.01663">
        <ele>296</ele>
        <time>2016-03-22T15:07:34Z</time>
      </trkpt>
      <trkpt lat="44.16384" lon="5.01658">
        <ele>294</ele>
        <time>2016-03-22T15:09:34Z</time>
      </trkpt>
      <trkpt lat="44.16413" lon="5.01673">
        <ele>294</ele>
        <time>2016-03-22T15:11:34Z</time>
      </trkpt>
      <trkpt lat="44.16433" lon="5.01674">
        <ele>297</ele>
        <time>2016-03-22T15:13:34Z</time>
      </trkpt>
      <trkpt lat="44.16441" lon="5.01662">
        <ele>296</ele>
        <time>2016-03-22T15:15:34Z</time>
      </trkpt>
      <trkpt lat="44.1648" lon="5.01606">
        <ele>291</ele>
        <time>2016-03-22T15:17:34Z</time>
      </trkpt>
      <trkpt lat="44.16538" lon="5.01569">
        <ele>286</ele>
        <time>2016-03-22T15:19:34Z</time>
      </trkpt>
      <trkpt lat="44.16615" lon="5.0147">
        <ele>273</ele>
        <time>2016-03-22T15:21:34Z</time>
      </trkpt>
      <trkpt lat="44.16621" lon="5.01418">
        <ele>274</ele>
        <time>2016-03-22T15:23:34Z</time>
      </trkpt>
      <trkpt lat="44.16599" lon="5.01424">
        <ele>272</ele>
        <time>2016-03-22T15:25:34Z</time>
      </trkpt>
      <trkpt lat="44.16593" lon="5.01407">
        <ele>271</ele>
        <time>2016-03-22T15:27:34Z</time>
      </trkpt>
      <trkpt lat="44.16602" lon="5.01333">
        <ele>274</ele>
        <time>2016-03-22T15:29:34Z</time>
      </trkpt>
      <trkpt lat="44.16612" lon="5.01266">
        <ele>275</ele>
        <time>2016-03-22T15:31:34Z</time>
      </trkpt>
      <trkpt lat="44.16628" lon="5.01214">
        <ele>273</ele>
        <time>2016-03-22T15:33:34Z</time>
      </trkpt>
      <trkpt lat="44.16637" lon="5.01195">
        <ele>271</ele>
        <time>2016-03-22T15:35:34Z</time>
      </trkpt>
      <trkpt lat="44.16653" lon="5.01174">
        <ele>266</ele>
        <time>2016-03-22T15:37:34Z</time>
      </trkpt>
      <trkpt lat="44.16657" lon="5.01163">
        <ele>265</ele>
        <time>2016-03-22T15:39:34Z</time>
      </trkpt>
      <trkpt lat="44.16666" lon="5.01103">
        <ele>263</ele>
        <time>2016-03-22T15:41:34Z</time>
      </trkpt>
      <trkpt lat="44.16648" lon="5.01032">
        <ele>265</ele>
        <time>2016-03-22T15:43:34Z</time>
      </trkpt>
      <trkpt lat="44.16622" lon="5.00977">
        <ele>264</ele>
        <time>2016-03-22T15:45:34Z</time>
      </trkpt>
      <trkpt lat="44.16601" lon="5.00947">
        <ele>265</ele>
        <time>2016-03-22T15:47:34Z</time>
      </trkpt>
      <trkpt lat="44.16591" lon="5.00925">
        <ele>264</ele>
        <time>2016-03-22T15:49:34Z</time>
      </trkpt>
      <trkpt lat="44.16585" lon="5.00881">
        <ele>260</ele>
        <time>2016-03-22T15:51:34Z</time>
      </trkpt>
      <trkpt lat="44.16575" lon="5.00858">
        <ele>260</ele>
        <time>2016-03-22T15:53:34Z</time>
      </trkpt>
      <trkpt lat="44.16561" lon="5.00839">
        <ele>263</ele>
        <time>2016-03-22T15:55:34Z</time>
      </trkpt>
      <trkpt lat="44.16551" lon="5.00831">
        <ele>265</ele>
        <time>2016-03-22T15:57:34Z</time>
      </trkpt>
      <trkpt lat="44.16517" lon="5.00767">
        <ele>261</ele>
        <time>2016-03-22T15:59:34Z</time>
      </trkpt>
      <trkpt lat="44.16469" lon="5.00693">
        <ele>257</ele>
        <time>2016-03-22T16:01:34Z</time>
      </trkpt>
      <trkpt lat="44.1646" lon="5.00645">
        <ele>252</ele>
        <time>2016-03-22T16:03:34Z</time>
      </trkpt>
      <trkpt lat="44.16449" lon="5.00623">
        <ele>252</ele>
        <time>2016-03-22T16:05:34Z</time>
      </trkpt>
      <trkpt lat="44.16432" lon="5.0057">
        <ele>248</ele>
        <time>2016-03-22T16:07:34Z</time>
      </trkpt>
      <trkpt lat="44.16422" lon="5.00549">
        <ele>247</ele>
        <time>2016-03-22T16:09:34Z</time>
      </trkpt>
      <trkpt lat="44.16416" lon="5.00503">
        <ele>242</ele>
        <time>2016-03-22T16:11:34Z</time>
      </trkpt>
      <trkpt lat="44.16367" lon="5.00429">
        <ele>241</ele>
        <time>2016-03-22T16:13:34Z</time>
      </trkpt>
      <trkpt lat="44.16341" lon="5.00427">
        <ele>243</ele>
        <time>2016-03-22T16:15:34Z</time>
      </trkpt>
      <trkpt lat="44.16325" lon="5.00413">
        <ele>243</ele>
        <time>2016-03-22T16:17:34Z</time>
      </trkpt>
      <trkpt lat="44.1634" lon="5.00399">
        <ele>240</ele>
        <time>2016-03-22T16:19:34Z</time>
      </trkpt>
      <trkpt lat="44.16318" lon="5.00333">
        <ele>241</ele>
        <time>2016-03-22T16:21:34Z</time>
      </trkpt>
      <trkpt lat="44.16326" lon="5.00316">
        <ele>239</ele>
        <time>2016-03-22T16:23:34Z</time>
      </trkpt>
      <trkpt lat="44.16324" lon="5.00302">
        <ele>240</ele>
        <time>2016-03-22T16:25:34Z</time>
      </trkpt>
      <trkpt lat="44.16333" lon="5.00272">
        <ele>238</ele>
        <time>2016-03-22T16:27:34Z</time>
      </trkpt>
    </trkseg>
  </trk>
</gpx>